sensor_id;sensor_type;location;lat;lon;timestamp;P1;durP1;ratioP1;P2;durP2;ratioP2
68886;SDS011;55925;51.764;6.402;2024-03-02T00:01:51;3.40;;;1.52;;
68886;SDS011;55925;51.764;6.402;2024-03-02T00:04:17;5.03;;;1.73;;
68886;SDS011;55925;51.764;6.402;2024-03-02T00:06:43;3.67;;;1.50;;
68886;SDS011;55925;51.764;6.402;2024-03-02T00:09:09;3.00;;;1.33;;
68886;SDS011;55925;51.764;6.402;2024-03-02T00:11:37;4.72;;;1.92;;
68886;SDS011;55925;51.764;6.402;2024-03-02T00:14:04;3.60;;;1.65;;
68886;SDS011;55925;51.764;6.402;2024-03-02T00:16:30;3.35;;;1.60;;
68886;SDS011;55925;51.764;6.402;2024-03-02T00:19:00;4.45;;;1.63;;
68886;SDS011;55925;51.764;6.402;2024-03-02T00:21:27;3.42;;;1.80;;
68886;SDS011;55925;51.764;6.402;2024-03-02T00:23:53;2.78;;;1.30;;
68886;SDS011;55925;51.764;6.402;2024-03-02T00:26:19;3.05;;;1.55;;
68886;SDS011;55925;51.764;6.402;2024-03-02T00:28:45;4.28;;;1.95;;
68886;SDS011;55925;51.764;6.402;2024-03-02T00:31:11;3.88;;;1.73;;
68886;SDS011;55925;51.764;6.402;2024-03-02T00:33:44;4.18;;;1.45;;
68886;SDS011;55925;51.764;6.402;2024-03-02T00:36:11;3.80;;;1.27;;
68886;SDS011;55925;51.764;6.402;2024-03-02T00:38:56;5.30;;;2.03;;
68886;SDS011;55925;51.764;6.402;2024-03-02T00:41:27;3.83;;;1.70;;
68886;SDS011;55925;51.764;6.402;2024-03-02T00:46:22;2.63;;;1.50;;
68886;SDS011;55925;51.764;6.402;2024-03-02T00:48:53;5.65;;;1.52;;
68886;SDS011;55925;51.764;6.402;2024-03-02T00:51:20;3.85;;;1.20;;
68886;SDS011;55925;51.764;6.402;2024-03-02T00:53:46;3.20;;;1.40;;
68886;SDS011;55925;51.764;6.402;2024-03-02T00:56:12;4.57;;;1.70;;
68886;SDS011;55925;51.764;6.402;2024-03-02T00:58:39;2.92;;;1.40;;
68886;SDS011;55925;51.764;6.402;2024-03-02T01:01:05;4.85;;;1.52;;
68886;SDS011;55925;51.764;6.402;2024-03-02T01:03:32;2.58;;;1.30;;
68886;SDS011;55925;51.764;6.402;2024-03-02T01:05:58;2.88;;;1.70;;
68886;SDS011;55925;51.764;6.402;2024-03-02T01:08:24;2.47;;;1.33;;
68886;SDS011;55925;51.764;6.402;2024-03-02T01:10:51;2.80;;;1.30;;
68886;SDS011;55925;51.764;6.402;2024-03-02T01:13:17;2.95;;;1.45;;
68886;SDS011;55925;51.764;6.402;2024-03-02T01:15:43;3.78;;;1.70;;
68886;SDS011;55925;51.764;6.402;2024-03-02T01:18:09;3.35;;;1.33;;
68886;SDS011;55925;51.764;6.402;2024-03-02T01:20:35;3.60;;;1.63;;
68886;SDS011;55925;51.764;6.402;2024-03-02T01:23:01;4.28;;;1.60;;
68886;SDS011;55925;51.764;6.402;2024-03-02T01:25:27;3.05;;;1.52;;
68886;SDS011;55925;51.764;6.402;2024-03-02T01:27:53;2.90;;;1.40;;
68886;SDS011;55925;51.764;6.402;2024-03-02T01:30:19;3.97;;;1.48;;
68886;SDS011;55925;51.764;6.402;2024-03-02T01:32:46;3.33;;;1.33;;
68886;SDS011;55925;51.764;6.402;2024-03-02T01:35:12;3.63;;;1.77;;
68886;SDS011;55925;51.764;6.402;2024-03-02T01:37:39;3.63;;;1.45;;
68886;SDS011;55925;51.764;6.402;2024-03-02T01:40:05;5.25;;;1.38;;
68886;SDS011;55925;51.764;6.402;2024-03-02T01:42:35;4.50;;;1.77;;
68886;SDS011;55925;51.764;6.402;2024-03-02T01:45:01;5.55;;;1.60;;
68886;SDS011;55925;51.764;6.402;2024-03-02T01:47:27;3.17;;;1.48;;
68886;SDS011;55925;51.764;6.402;2024-03-02T01:49:53;5.88;;;1.70;;
68886;SDS011;55925;51.764;6.402;2024-03-02T01:52:19;3.47;;;1.60;;
68886;SDS011;55925;51.764;6.402;2024-03-02T01:54:45;3.70;;;1.40;;
68886;SDS011;55925;51.764;6.402;2024-03-02T01:57:11;4.30;;;1.48;;
68886;SDS011;55925;51.764;6.402;2024-03-02T01:59:37;3.10;;;1.27;;
68886;SDS011;55925;51.764;6.402;2024-03-02T02:02:03;5.07;;;1.50;;
68886;SDS011;55925;51.764;6.402;2024-03-02T02:04:29;4.43;;;1.52;;
68886;SDS011;55925;51.764;6.402;2024-03-02T02:06:55;4.68;;;2.10;;
68886;SDS011;55925;51.764;6.402;2024-03-02T02:09:22;3.75;;;1.27;;
68886;SDS011;55925;51.764;6.402;2024-03-02T02:11:48;4.00;;;1.27;;
68886;SDS011;55925;51.764;6.402;2024-03-02T02:14:13;3.17;;;1.33;;
68886;SDS011;55925;51.764;6.402;2024-03-02T02:16:40;4.22;;;1.65;;
68886;SDS011;55925;51.764;6.402;2024-03-02T02:19:05;4.03;;;1.52;;
68886;SDS011;55925;51.764;6.402;2024-03-02T02:21:32;3.63;;;1.48;;
68886;SDS011;55925;51.764;6.402;2024-03-02T02:23:58;2.85;;;1.52;;
68886;SDS011;55925;51.764;6.402;2024-03-02T02:26:24;4.97;;;1.38;;
68886;SDS011;55925;51.764;6.402;2024-03-02T02:28:50;3.63;;;1.63;;
68886;SDS011;55925;51.764;6.402;2024-03-02T02:31:16;2.50;;;1.20;;
68886;SDS011;55925;51.764;6.402;2024-03-02T02:33:42;3.03;;;1.33;;
68886;SDS011;55925;51.764;6.402;2024-03-02T02:36:08;3.53;;;1.40;;
68886;SDS011;55925;51.764;6.402;2024-03-02T02:38:36;3.80;;;1.10;;
68886;SDS011;55925;51.764;6.402;2024-03-02T02:41:03;2.72;;;1.30;;
68886;SDS011;55925;51.764;6.402;2024-03-02T02:43:29;3.47;;;1.10;;
68886;SDS011;55925;51.764;6.402;2024-03-02T02:45:55;3.15;;;1.27;;
68886;SDS011;55925;51.764;6.402;2024-03-02T02:48:21;3.25;;;1.02;;
68886;SDS011;55925;51.764;6.402;2024-03-02T02:50:47;2.08;;;1.00;;
68886;SDS011;55925;51.764;6.402;2024-03-02T02:53:13;3.22;;;1.13;;
68886;SDS011;55925;51.764;6.402;2024-03-02T02:55:39;2.40;;;1.30;;
68886;SDS011;55925;51.764;6.402;2024-03-02T02:58:09;2.50;;;0.80;;
68886;SDS011;55925;51.764;6.402;2024-03-02T03:00:35;2.30;;;1.10;;
68886;SDS011;55925;51.764;6.402;2024-03-02T03:03:01;2.38;;;0.98;;
68886;SDS011;55925;51.764;6.402;2024-03-02T03:05:27;4.03;;;1.10;;
68886;SDS011;55925;51.764;6.402;2024-03-02T03:07:53;1.85;;;0.68;;
68886;SDS011;55925;51.764;6.402;2024-03-02T03:10:19;1.35;;;0.75;;
68886;SDS011;55925;51.764;6.402;2024-03-02T03:12:47;1.95;;;0.80;;
68886;SDS011;55925;51.764;6.402;2024-03-02T03:15:14;1.38;;;0.60;;
68886;SDS011;55925;51.764;6.402;2024-03-02T03:17:41;1.33;;;0.80;;
68886;SDS011;55925;51.764;6.402;2024-03-02T03:20:07;1.70;;;0.60;;
68886;SDS011;55925;51.764;6.402;2024-03-02T03:22:37;1.45;;;0.80;;
68886;SDS011;55925;51.764;6.402;2024-03-02T03:25:03;1.33;;;0.73;;
68886;SDS011;55925;51.764;6.402;2024-03-02T03:27:29;1.52;;;0.75;;
68886;SDS011;55925;51.764;6.402;2024-03-02T03:29:55;1.90;;;0.73;;
68886;SDS011;55925;51.764;6.402;2024-03-02T03:32:21;1.90;;;0.63;;
68886;SDS011;55925;51.764;6.402;2024-03-02T03:34:47;2.40;;;0.70;;
68886;SDS011;55925;51.764;6.402;2024-03-02T03:37:13;2.80;;;1.20;;
68886;SDS011;55925;51.764;6.402;2024-03-02T03:39:40;2.63;;;1.08;;
68886;SDS011;55925;51.764;6.402;2024-03-02T03:42:06;1.35;;;0.47;;
68886;SDS011;55925;51.764;6.402;2024-03-02T03:44:32;1.50;;;0.80;;
68886;SDS011;55925;51.764;6.402;2024-03-02T03:46:59;1.58;;;0.82;;
68886;SDS011;55925;51.764;6.402;2024-03-02T03:49:27;1.75;;;0.80;;
68886;SDS011;55925;51.764;6.402;2024-03-02T03:51:53;2.78;;;1.00;;
68886;SDS011;55925;51.764;6.402;2024-03-02T03:54:19;1.73;;;1.08;;
68886;SDS011;55925;51.764;6.402;2024-03-02T03:56:44;1.98;;;0.85;;
68886;SDS011;55925;51.764;6.402;2024-03-02T03:59:10;2.35;;;0.95;;
68886;SDS011;55925;51.764;6.402;2024-03-02T04:01:37;1.75;;;0.80;;
68886;SDS011;55925;51.764;6.402;2024-03-02T04:04:03;1.48;;;0.77;;
68886;SDS011;55925;51.764;6.402;2024-03-02T04:06:29;1.88;;;0.98;;
68886;SDS011;55925;51.764;6.402;2024-03-02T04:08:55;3.63;;;1.35;;
68886;SDS011;55925;51.764;6.402;2024-03-02T04:11:21;2.25;;;0.77;;
68886;SDS011;55925;51.764;6.402;2024-03-02T04:13:47;2.53;;;0.95;;
68886;SDS011;55925;51.764;6.402;2024-03-02T04:16:13;2.40;;;0.93;;
68886;SDS011;55925;51.764;6.402;2024-03-02T04:18:39;3.03;;;1.30;;
68886;SDS011;55925;51.764;6.402;2024-03-02T04:21:05;0.98;;;0.70;;
68886;SDS011;55925;51.764;6.402;2024-03-02T04:23:31;1.52;;;0.90;;
68886;SDS011;55925;51.764;6.402;2024-03-02T04:25:57;1.38;;;0.77;;
68886;SDS011;55925;51.764;6.402;2024-03-02T04:28:23;1.35;;;0.80;;
68886;SDS011;55925;51.764;6.402;2024-03-02T04:30:49;1.20;;;0.70;;
68886;SDS011;55925;51.764;6.402;2024-03-02T04:33:15;1.58;;;0.98;;
68886;SDS011;55925;51.764;6.402;2024-03-02T04:35:41;1.10;;;0.60;;
68886;SDS011;55925;51.764;6.402;2024-03-02T04:38:07;3.10;;;0.90;;
68886;SDS011;55925;51.764;6.402;2024-03-02T04:40:33;2.25;;;0.80;;
68886;SDS011;55925;51.764;6.402;2024-03-02T04:42:59;3.67;;;1.10;;
68886;SDS011;55925;51.764;6.402;2024-03-02T04:45:25;1.45;;;0.73;;
68886;SDS011;55925;51.764;6.402;2024-03-02T04:47:51;1.27;;;0.60;;
68886;SDS011;55925;51.764;6.402;2024-03-02T04:50:17;1.02;;;0.70;;
68886;SDS011;55925;51.764;6.402;2024-03-02T04:52:44;2.40;;;0.70;;
68886;SDS011;55925;51.764;6.402;2024-03-02T04:55:10;1.73;;;0.75;;
68886;SDS011;55925;51.764;6.402;2024-03-02T05:00:21;0.85;;;0.60;;
68886;SDS011;55925;51.764;6.402;2024-03-02T05:02:47;1.80;;;1.05;;
68886;SDS011;55925;51.764;6.402;2024-03-02T05:05:13;1.27;;;0.80;;
68886;SDS011;55925;51.764;6.402;2024-03-02T05:07:42;4.00;;;0.80;;
68886;SDS011;55925;51.764;6.402;2024-03-02T05:10:09;2.08;;;0.52;;
68886;SDS011;55925;51.764;6.402;2024-03-02T05:12:36;2.08;;;0.73;;
68886;SDS011;55925;51.764;6.402;2024-03-02T05:17:35;1.58;;;0.90;;
68886;SDS011;55925;51.764;6.402;2024-03-02T05:20:01;1.58;;;0.70;;
68886;SDS011;55925;51.764;6.402;2024-03-02T05:22:27;1.38;;;0.70;;
68886;SDS011;55925;51.764;6.402;2024-03-02T05:24:53;1.75;;;0.50;;
68886;SDS011;55925;51.764;6.402;2024-03-02T05:27:19;2.08;;;0.77;;
68886;SDS011;55925;51.764;6.402;2024-03-02T05:29:46;1.13;;;0.70;;
68886;SDS011;55925;51.764;6.402;2024-03-02T05:32:12;1.10;;;0.70;;
68886;SDS011;55925;51.764;6.402;2024-03-02T05:34:38;2.08;;;0.90;;
68886;SDS011;55925;51.764;6.402;2024-03-02T05:37:04;1.75;;;0.93;;
68886;SDS011;55925;51.764;6.402;2024-03-02T05:39:30;2.60;;;0.90;;
68886;SDS011;55925;51.764;6.402;2024-03-02T05:41:56;1.83;;;0.70;;
68886;SDS011;55925;51.764;6.402;2024-03-02T05:44:21;1.85;;;0.88;;
68886;SDS011;55925;51.764;6.402;2024-03-02T05:46:47;2.85;;;0.80;;
68886;SDS011;55925;51.764;6.402;2024-03-02T05:49:13;3.83;;;0.73;;
68886;SDS011;55925;51.764;6.402;2024-03-02T05:51:39;1.50;;;0.70;;
68886;SDS011;55925;51.764;6.402;2024-03-02T05:54:06;2.55;;;1.00;;
68886;SDS011;55925;51.764;6.402;2024-03-02T05:56:32;1.52;;;1.00;;
68886;SDS011;55925;51.764;6.402;2024-03-02T05:58:58;1.23;;;0.70;;
68886;SDS011;55925;51.764;6.402;2024-03-02T06:01:44;3.97;;;0.80;;
68886;SDS011;55925;51.764;6.402;2024-03-02T06:04:12;2.35;;;0.75;;
68886;SDS011;55925;51.764;6.402;2024-03-02T06:06:38;0.93;;;0.60;;
68886;SDS011;55925;51.764;6.402;2024-03-02T06:09:04;1.20;;;0.70;;
68886;SDS011;55925;51.764;6.402;2024-03-02T06:11:33;1.77;;;0.80;;
68886;SDS011;55925;51.764;6.402;2024-03-02T06:13:59;1.55;;;0.88;;
68886;SDS011;55925;51.764;6.402;2024-03-02T06:16:25;1.92;;;1.00;;
68886;SDS011;55925;51.764;6.402;2024-03-02T06:18:50;1.77;;;0.98;;
68886;SDS011;55925;51.764;6.402;2024-03-02T06:21:18;2.38;;;1.05;;
68886;SDS011;55925;51.764;6.402;2024-03-02T06:23:45;2.10;;;0.93;;
68886;SDS011;55925;51.764;6.402;2024-03-02T06:26:11;2.05;;;0.90;;
68886;SDS011;55925;51.764;6.402;2024-03-02T06:28:37;2.35;;;0.90;;
68886;SDS011;55925;51.764;6.402;2024-03-02T06:31:03;2.85;;;1.10;;
68886;SDS011;55925;51.764;6.402;2024-03-02T06:33:29;2.33;;;1.08;;
68886;SDS011;55925;51.764;6.402;2024-03-02T06:35:55;2.15;;;1.10;;
68886;SDS011;55925;51.764;6.402;2024-03-02T06:38:21;2.10;;;0.90;;
68886;SDS011;55925;51.764;6.402;2024-03-02T06:40:47;3.65;;;1.63;;
68886;SDS011;55925;51.764;6.402;2024-03-02T06:43:13;2.70;;;1.30;;
68886;SDS011;55925;51.764;6.402;2024-03-02T06:45:39;1.50;;;1.08;;
68886;SDS011;55925;51.764;6.402;2024-03-02T06:48:05;2.97;;;1.00;;
68886;SDS011;55925;51.764;6.402;2024-03-02T06:50:31;2.83;;;1.25;;
68886;SDS011;55925;51.764;6.402;2024-03-02T06:52:57;2.05;;;1.20;;
68886;SDS011;55925;51.764;6.402;2024-03-02T06:55:23;2.25;;;1.10;;
68886;SDS011;55925;51.764;6.402;2024-03-02T06:57:49;3.22;;;1.10;;
68886;SDS011;55925;51.764;6.402;2024-03-02T07:00:16;1.58;;;0.93;;
68886;SDS011;55925;51.764;6.402;2024-03-02T07:02:43;2.42;;;0.90;;
68886;SDS011;55925;51.764;6.402;2024-03-02T07:05:09;2.35;;;1.10;;
68886;SDS011;55925;51.764;6.402;2024-03-02T07:07:36;3.60;;;0.95;;
68886;SDS011;55925;51.764;6.402;2024-03-02T07:10:05;1.98;;;1.20;;
68886;SDS011;55925;51.764;6.402;2024-03-02T07:12:32;2.72;;;0.98;;
68886;SDS011;55925;51.764;6.402;2024-03-02T07:14:58;3.20;;;1.30;;
68886;SDS011;55925;51.764;6.402;2024-03-02T07:17:27;3.67;;;1.00;;
68886;SDS011;55925;51.764;6.402;2024-03-02T07:19:53;3.28;;;1.10;;
68886;SDS011;55925;51.764;6.402;2024-03-02T07:22:19;5.53;;;1.00;;
68886;SDS011;55925;51.764;6.402;2024-03-02T07:24:45;4.07;;;1.13;;
68886;SDS011;55925;51.764;6.402;2024-03-02T07:27:11;2.55;;;1.10;;
68886;SDS011;55925;51.764;6.402;2024-03-02T07:29:38;2.58;;;1.05;;
68886;SDS011;55925;51.764;6.402;2024-03-02T07:32:04;2.97;;;1.33;;
68886;SDS011;55925;51.764;6.402;2024-03-02T07:34:30;3.88;;;1.75;;
68886;SDS011;55925;51.764;6.402;2024-03-02T07:36:56;3.72;;;1.42;;
68886;SDS011;55925;51.764;6.402;2024-03-02T07:39:23;4.32;;;1.40;;
68886;SDS011;55925;51.764;6.402;2024-03-02T07:41:49;2.80;;;1.20;;
68886;SDS011;55925;51.764;6.402;2024-03-02T07:44:15;3.83;;;1.40;;
68886;SDS011;55925;51.764;6.402;2024-03-02T07:46:44;4.72;;;1.30;;
68886;SDS011;55925;51.764;6.402;2024-03-02T07:49:11;3.50;;;1.23;;
68886;SDS011;55925;51.764;6.402;2024-03-02T07:51:38;3.53;;;1.60;;
68886;SDS011;55925;51.764;6.402;2024-03-02T07:54:04;2.70;;;1.50;;
68886;SDS011;55925;51.764;6.402;2024-03-02T07:56:30;3.42;;;1.60;;
68886;SDS011;55925;51.764;6.402;2024-03-02T07:58:56;5.25;;;1.30;;
68886;SDS011;55925;51.764;6.402;2024-03-02T08:01:26;5.82;;;2.28;;
68886;SDS011;55925;51.764;6.402;2024-03-02T08:03:52;4.68;;;1.60;;
68886;SDS011;55925;51.764;6.402;2024-03-02T08:06:18;3.83;;;1.65;;
68886;SDS011;55925;51.764;6.402;2024-03-02T08:08:46;3.83;;;1.88;;
68886;SDS011;55925;51.764;6.402;2024-03-02T08:11:12;5.53;;;1.80;;
68886;SDS011;55925;51.764;6.402;2024-03-02T08:13:38;5.00;;;1.80;;
68886;SDS011;55925;51.764;6.402;2024-03-02T08:16:04;6.28;;;1.75;;
68886;SDS011;55925;51.764;6.402;2024-03-02T08:18:34;4.47;;;1.80;;
68886;SDS011;55925;51.764;6.402;2024-03-02T08:21:00;4.47;;;1.77;;
68886;SDS011;55925;51.764;6.402;2024-03-02T08:23:26;3.53;;;1.50;;
68886;SDS011;55925;51.764;6.402;2024-03-02T08:25:52;4.78;;;1.60;;
68886;SDS011;55925;51.764;6.402;2024-03-02T08:28:18;3.25;;;1.52;;
68886;SDS011;55925;51.764;6.402;2024-03-02T08:30:45;5.57;;;1.70;;
68886;SDS011;55925;51.764;6.402;2024-03-02T08:33:11;3.42;;;1.65;;
68886;SDS011;55925;51.764;6.402;2024-03-02T08:35:37;6.82;;;1.95;;
68886;SDS011;55925;51.764;6.402;2024-03-02T08:38:03;4.22;;;1.45;;
68886;SDS011;55925;51.764;6.402;2024-03-02T08:40:29;3.47;;;1.48;;
68886;SDS011;55925;51.764;6.402;2024-03-02T08:42:55;3.75;;;1.42;;
68886;SDS011;55925;51.764;6.402;2024-03-02T08:45:22;4.07;;;1.40;;
68886;SDS011;55925;51.764;6.402;2024-03-02T08:47:48;6.43;;;1.50;;
68886;SDS011;55925;51.764;6.402;2024-03-02T08:50:14;4.72;;;1.42;;
68886;SDS011;55925;51.764;6.402;2024-03-02T08:52:40;3.78;;;1.70;;
68886;SDS011;55925;51.764;6.402;2024-03-02T08:55:06;4.45;;;2.00;;
68886;SDS011;55925;51.764;6.402;2024-03-02T08:57:32;7.90;;;1.70;;
68886;SDS011;55925;51.764;6.402;2024-03-02T08:59:58;4.07;;;1.55;;
68886;SDS011;55925;51.764;6.402;2024-03-02T09:02:25;3.30;;;1.50;;
68886;SDS011;55925;51.764;6.402;2024-03-02T09:04:51;3.55;;;1.63;;
68886;SDS011;55925;51.764;6.402;2024-03-02T09:07:17;3.25;;;1.13;;
68886;SDS011;55925;51.764;6.402;2024-03-02T09:09:43;2.10;;;1.00;;
68886;SDS011;55925;51.764;6.402;2024-03-02T09:12:09;3.15;;;1.35;;
68886;SDS011;55925;51.764;6.402;2024-03-02T09:14:36;3.20;;;1.40;;
68886;SDS011;55925;51.764;6.402;2024-03-02T09:17:02;2.58;;;1.13;;
68886;SDS011;55925;51.764;6.402;2024-03-02T09:19:28;3.05;;;1.10;;
68886;SDS011;55925;51.764;6.402;2024-03-02T09:21:54;4.20;;;1.25;;
68886;SDS011;55925;51.764;6.402;2024-03-02T09:24:21;3.15;;;1.20;;
68886;SDS011;55925;51.764;6.402;2024-03-02T09:26:47;2.78;;;1.00;;
68886;SDS011;55925;51.764;6.402;2024-03-02T09:29:13;2.20;;;1.00;;
68886;SDS011;55925;51.764;6.402;2024-03-02T09:31:40;3.95;;;1.35;;
68886;SDS011;55925;51.764;6.402;2024-03-02T09:34:06;4.35;;;1.13;;
68886;SDS011;55925;51.764;6.402;2024-03-02T09:36:32;2.45;;;1.05;;
68886;SDS011;55925;51.764;6.402;2024-03-02T09:38:58;1.90;;;0.70;;
68886;SDS011;55925;51.764;6.402;2024-03-02T09:41:24;4.03;;;1.10;;
68886;SDS011;55925;51.764;6.402;2024-03-02T09:43:50;1.83;;;0.88;;
68886;SDS011;55925;51.764;6.402;2024-03-02T09:46:17;3.55;;;1.02;;
68886;SDS011;55925;51.764;6.402;2024-03-02T09:48:44;2.97;;;0.98;;
68886;SDS011;55925;51.764;6.402;2024-03-02T09:51:10;2.28;;;0.90;;
68886;SDS011;55925;51.764;6.402;2024-03-02T09:53:37;1.90;;;1.00;;
68886;SDS011;55925;51.764;6.402;2024-03-02T09:56:03;3.28;;;1.10;;
68886;SDS011;55925;51.764;6.402;2024-03-02T09:58:30;2.17;;;1.00;;
68886;SDS011;55925;51.764;6.402;2024-03-02T10:00:56;2.38;;;0.98;;
68886;SDS011;55925;51.764;6.402;2024-03-02T10:03:24;6.35;;;1.33;;
68886;SDS011;55925;51.764;6.402;2024-03-02T10:05:50;1.83;;;0.90;;
68886;SDS011;55925;51.764;6.402;2024-03-02T10:08:16;2.30;;;1.00;;
68886;SDS011;55925;51.764;6.402;2024-03-02T10:10:43;4.30;;;1.20;;
68886;SDS011;55925;51.764;6.402;2024-03-02T10:13:10;3.83;;;1.38;;
68886;SDS011;55925;51.764;6.402;2024-03-02T10:15:36;3.50;;;1.20;;
68886;SDS011;55925;51.764;6.402;2024-03-02T10:18:03;3.72;;;1.20;;
68886;SDS011;55925;51.764;6.402;2024-03-02T10:20:29;3.05;;;1.10;;
68886;SDS011;55925;51.764;6.402;2024-03-02T10:23:10;3.53;;;1.00;;
68886;SDS011;55925;51.764;6.402;2024-03-02T10:25:36;2.75;;;0.95;;
68886;SDS011;55925;51.764;6.402;2024-03-02T10:28:02;3.95;;;1.30;;
68886;SDS011;55925;51.764;6.402;2024-03-02T10:30:31;2.50;;;1.20;;
68886;SDS011;55925;51.764;6.402;2024-03-02T10:32:57;2.97;;;0.90;;
68886;SDS011;55925;51.764;6.402;2024-03-02T10:35:23;2.78;;;1.10;;
68886;SDS011;55925;51.764;6.402;2024-03-02T10:37:51;4.95;;;1.10;;
68886;SDS011;55925;51.764;6.402;2024-03-02T10:40:17;3.30;;;1.00;;
68886;SDS011;55925;51.764;6.402;2024-03-02T10:42:43;4.05;;;1.00;;
68886;SDS011;55925;51.764;6.402;2024-03-02T10:45:10;3.13;;;1.10;;
68886;SDS011;55925;51.764;6.402;2024-03-02T10:47:38;2.75;;;1.00;;
68886;SDS011;55925;51.764;6.402;2024-03-02T10:50:04;3.30;;;1.20;;
68886;SDS011;55925;51.764;6.402;2024-03-02T10:52:33;3.25;;;1.23;;
68886;SDS011;55925;51.764;6.402;2024-03-02T10:54:59;4.90;;;1.13;;
68886;SDS011;55925;51.764;6.402;2024-03-02T10:57:25;4.93;;;1.35;;
68886;SDS011;55925;51.764;6.402;2024-03-02T10:59:52;3.85;;;1.33;;
68886;SDS011;55925;51.764;6.402;2024-03-02T11:02:21;2.80;;;1.20;;
68886;SDS011;55925;51.764;6.402;2024-03-02T11:04:47;2.67;;;1.23;;
68886;SDS011;55925;51.764;6.402;2024-03-02T11:07:15;2.72;;;1.13;;
68886;SDS011;55925;51.764;6.402;2024-03-02T11:09:54;3.55;;;1.00;;
68886;SDS011;55925;51.764;6.402;2024-03-02T11:12:26;3.05;;;1.50;;
68886;SDS011;55925;51.764;6.402;2024-03-02T11:14:54;2.72;;;1.15;;
68886;SDS011;55925;51.764;6.402;2024-03-02T11:17:21;2.63;;;1.20;;
68886;SDS011;55925;51.764;6.402;2024-03-02T11:19:47;2.78;;;1.17;;
68886;SDS011;55925;51.764;6.402;2024-03-02T11:22:14;5.82;;;1.40;;
68886;SDS011;55925;51.764;6.402;2024-03-02T11:24:48;2.10;;;0.90;;
68886;SDS011;55925;51.764;6.402;2024-03-02T11:27:15;3.22;;;1.30;;
68886;SDS011;55925;51.764;6.402;2024-03-02T11:30:00;3.42;;;1.80;;
68886;SDS011;55925;51.764;6.402;2024-03-02T11:32:27;2.50;;;1.10;;
68886;SDS011;55925;51.764;6.402;2024-03-02T11:34:52;3.90;;;1.73;;
68886;SDS011;55925;51.764;6.402;2024-03-02T11:37:19;3.08;;;1.10;;
68886;SDS011;55925;51.764;6.402;2024-03-02T11:39:46;3.35;;;1.15;;
68886;SDS011;55925;51.764;6.402;2024-03-02T11:42:12;3.20;;;1.20;;
68886;SDS011;55925;51.764;6.402;2024-03-02T11:44:45;3.88;;;1.20;;
68886;SDS011;55925;51.764;6.402;2024-03-02T11:47:13;2.25;;;1.05;;
68886;SDS011;55925;51.764;6.402;2024-03-02T11:49:40;2.38;;;1.00;;
68886;SDS011;55925;51.764;6.402;2024-03-02T11:52:07;7.38;;;1.30;;
68886;SDS011;55925;51.764;6.402;2024-03-02T11:54:34;3.22;;;1.35;;
68886;SDS011;55925;51.764;6.402;2024-03-02T11:57:03;3.22;;;1.08;;
68886;SDS011;55925;51.764;6.402;2024-03-02T11:59:29;3.47;;;1.30;;
68886;SDS011;55925;51.764;6.402;2024-03-02T12:01:55;2.33;;;1.00;;
68886;SDS011;55925;51.764;6.402;2024-03-02T12:04:21;2.45;;;1.15;;
68886;SDS011;55925;51.764;6.402;2024-03-02T12:06:48;2.72;;;1.10;;
68886;SDS011;55925;51.764;6.402;2024-03-02T12:11:45;5.28;;;1.50;;
68886;SDS011;55925;51.764;6.402;2024-03-02T12:14:12;3.28;;;1.00;;
68886;SDS011;55925;51.764;6.402;2024-03-02T12:16:38;2.13;;;1.35;;
68886;SDS011;55925;51.764;6.402;2024-03-02T12:19:05;8.70;;;1.00;;
68886;SDS011;55925;51.764;6.402;2024-03-02T12:21:31;2.55;;;1.05;;
68886;SDS011;55925;51.764;6.402;2024-03-02T12:23:57;4.97;;;1.90;;
68886;SDS011;55925;51.764;6.402;2024-03-02T12:26:23;1.85;;;0.90;;
68886;SDS011;55925;51.764;6.402;2024-03-02T12:28:50;4.80;;;1.20;;
68886;SDS011;55925;51.764;6.402;2024-03-02T12:31:16;3.58;;;1.17;;
68886;SDS011;55925;51.764;6.402;2024-03-02T12:33:42;2.35;;;1.00;;
68886;SDS011;55925;51.764;6.402;2024-03-02T12:36:13;2.78;;;0.93;;
68886;SDS011;55925;51.764;6.402;2024-03-02T12:38:45;3.03;;;1.10;;
68886;SDS011;55925;51.764;6.402;2024-03-02T12:41:14;3.97;;;1.02;;
68886;SDS011;55925;51.764;6.402;2024-03-02T12:43:40;4.95;;;1.17;;
68886;SDS011;55925;51.764;6.402;2024-03-02T12:46:06;3.35;;;0.88;;
68886;SDS011;55925;51.764;6.402;2024-03-02T12:48:33;2.08;;;0.90;;
68886;SDS011;55925;51.764;6.402;2024-03-02T12:51:00;3.63;;;1.20;;
68886;SDS011;55925;51.764;6.402;2024-03-02T12:53:26;4.80;;;2.00;;
68886;SDS011;55925;51.764;6.402;2024-03-02T12:55:52;5.00;;;1.50;;
68886;SDS011;55925;51.764;6.402;2024-03-02T12:58:21;4.20;;;1.20;;
68886;SDS011;55925;51.764;6.402;2024-03-02T13:00:47;3.58;;;1.20;;
68886;SDS011;55925;51.764;6.402;2024-03-02T13:03:13;2.83;;;1.30;;
68886;SDS011;55925;51.764;6.402;2024-03-02T13:05:40;6.22;;;1.05;;
68886;SDS011;55925;51.764;6.402;2024-03-02T13:08:06;2.05;;;1.02;;
68886;SDS011;55925;51.764;6.402;2024-03-02T13:10:32;4.82;;;1.40;;
68886;SDS011;55925;51.764;6.402;2024-03-02T13:12:59;2.42;;;1.02;;
68886;SDS011;55925;51.764;6.402;2024-03-02T13:15:26;4.47;;;1.20;;
68886;SDS011;55925;51.764;6.402;2024-03-02T13:17:52;4.93;;;1.10;;
68886;SDS011;55925;51.764;6.402;2024-03-02T13:20:18;1.60;;;0.90;;
68886;SDS011;55925;51.764;6.402;2024-03-02T13:22:45;3.33;;;1.50;;
68886;SDS011;55925;51.764;6.402;2024-03-02T13:25:11;2.90;;;0.98;;
68886;SDS011;55925;51.764;6.402;2024-03-02T13:27:37;4.07;;;1.25;;
68886;SDS011;55925;51.764;6.402;2024-03-02T13:30:03;2.85;;;0.90;;
68886;SDS011;55925;51.764;6.402;2024-03-02T13:32:33;2.55;;;1.17;;
68886;SDS011;55925;51.764;6.402;2024-03-02T13:34:59;2.38;;;0.85;;
68886;SDS011;55925;51.764;6.402;2024-03-02T13:37:25;3.67;;;1.00;;
68886;SDS011;55925;51.764;6.402;2024-03-02T13:39:51;4.05;;;1.23;;
68886;SDS011;55925;51.764;6.402;2024-03-02T13:42:17;2.92;;;1.23;;
68886;SDS011;55925;51.764;6.402;2024-03-02T13:44:43;3.92;;;0.93;;
68886;SDS011;55925;51.764;6.402;2024-03-02T13:47:14;3.53;;;1.48;;
68886;SDS011;55925;51.764;6.402;2024-03-02T13:49:41;3.25;;;1.33;;
68886;SDS011;55925;51.764;6.402;2024-03-02T13:52:11;4.03;;;1.52;;
68886;SDS011;55925;51.764;6.402;2024-03-02T13:54:41;3.88;;;1.45;;
68886;SDS011;55925;51.764;6.402;2024-03-02T13:57:08;3.58;;;1.40;;
68886;SDS011;55925;51.764;6.402;2024-03-02T13:59:34;4.38;;;1.33;;
68886;SDS011;55925;51.764;6.402;2024-03-02T14:02:01;3.70;;;2.03;;
68886;SDS011;55925;51.764;6.402;2024-03-02T14:04:29;5.28;;;1.88;;
68886;SDS011;55925;51.764;6.402;2024-03-02T14:06:56;4.85;;;1.67;;
68886;SDS011;55925;51.764;6.402;2024-03-02T14:09:22;3.47;;;1.40;;
68886;SDS011;55925;51.764;6.402;2024-03-02T14:11:49;4.60;;;2.00;;
68886;SDS011;55925;51.764;6.402;2024-03-02T14:14:16;3.60;;;1.20;;
68886;SDS011;55925;51.764;6.402;2024-03-02T14:16:42;3.70;;;1.70;;
68886;SDS011;55925;51.764;6.402;2024-03-02T14:19:08;3.83;;;1.70;;
68886;SDS011;55925;51.764;6.402;2024-03-02T14:21:34;4.95;;;2.05;;
68886;SDS011;55925;51.764;6.402;2024-03-02T14:24:01;4.05;;;2.05;;
68886;SDS011;55925;51.764;6.402;2024-03-02T14:26:27;3.92;;;1.48;;
68886;SDS011;55925;51.764;6.402;2024-03-02T14:28:53;5.07;;;1.70;;
68886;SDS011;55925;51.764;6.402;2024-03-02T14:31:19;3.95;;;1.65;;
68886;SDS011;55925;51.764;6.402;2024-03-02T14:33:46;3.55;;;1.75;;
68886;SDS011;55925;51.764;6.402;2024-03-02T14:36:12;3.90;;;1.60;;
68886;SDS011;55925;51.764;6.402;2024-03-02T14:38:38;4.88;;;1.67;;
68886;SDS011;55925;51.764;6.402;2024-03-02T14:41:04;3.28;;;1.30;;
68886;SDS011;55925;51.764;6.402;2024-03-02T14:43:30;7.07;;;1.20;;
68886;SDS011;55925;51.764;6.402;2024-03-02T14:45:56;2.60;;;1.30;;
68886;SDS011;55925;51.764;6.402;2024-03-02T14:48:24;5.13;;;1.52;;
68886;SDS011;55925;51.764;6.402;2024-03-02T14:50:50;3.42;;;1.33;;
68886;SDS011;55925;51.764;6.402;2024-03-02T14:53:16;2.42;;;1.08;;
68886;SDS011;55925;51.764;6.402;2024-03-02T14:55:43;3.30;;;1.02;;